Details for Thomas Cook Airlines at EGCC




Go Back


Latest METAR
Local Time

EGCC 180620Z 23009KT 180V240 9999 VCSH FEW025 BKN035 17/14 Q1017
18/08/2018, 07:27:13

Description
Results
Thomas Cook Airlines Logo
Number of Pilots based at EGCC
2 Pilots Based here
Number of Thomas Cook Airlines Flights Departed from EGCC
2 Flights Departed
Number of Thomas Cook Airlines Flights Arrived at EGCC
1 Flights Arrived
Number of Thomas Cook Airlines Schedules Departing from EGCC
82 Schedules
Number of Thomas Cook Airlines Schedules Arriving at EGCC
85 Schedules
Number of Thomas Cook Airlines Schedules Departing from EGCC availible today
18 Schedules Today
Number of Thomas Cook Airlines Schedules Arriving at EGCC availible today
18 Schedules Today
Average Landing Rate at EGCC
-205 fpm
Thomas Cook Airlines Average Landing Rate at EGCC
-205 fpm
Total Fuel Purchased at EGCC by Thomas Cook Airlines
10,155.27 kgs / 22,388.31 lbs

Pilots Based at EGCC


Pilot ID
Pilot Name
Pilot Rank
No. of Flights
No. of Flying Hours
Andy Brookes
9
9.47
Andrew Sutcliffe
420
1589
Content